Terminal Aerodrome Forecast
Issued by NWS Tuscon, AZ

Home | Current Version | Previous Version | Text Only | Print | Product List | Glossary On
Versions: 1 2 3 4 5 6 7 8 9 10 11 12 13
000
FTUS45 KTWC 291120
TAFTUS
TAF
KTUS 291120Z 2912/3012 29008KT P6SM BKN100
     FM291800 32015G25KT P6SM SCT100
     FM300400 29010KT P6SM FEW100=

USA.gov is the U.S. government's official web portal to all federal, state and local government web resources and services.